sensor_id;sensor_type;location;lat;lon;timestamp;pressure;altitude;pressure_sealevel;temperature;humidity
66627;BME280;53498;50.422;14.912;2024-01-07T00:00:26;-24029.00;;;0.68;100.00
66627;BME280;53498;50.422;14.912;2024-01-07T00:03:12;-24027.47;;;0.63;100.00
66627;BME280;53498;50.422;14.912;2024-01-07T00:05:37;-24026.84;;;0.61;100.00
66627;BME280;53498;50.422;14.912;2024-01-07T00:08:03;-24027.13;;;0.62;100.00
66627;BME280;53498;50.422;14.912;2024-01-07T00:10:28;-24031.03;;;0.75;100.00
66627;BME280;53498;50.422;14.912;2024-01-07T00:12:54;-24029.63;;;0.71;100.00
66627;BME280;53498;50.422;14.912;2024-01-07T00:15:20;-24039.56;;;1.03;100.00
66627;BME280;53498;50.422;14.912;2024-01-07T00:17:45;-24032.59;;;0.80;100.00
66627;BME280;53498;50.422;14.912;2024-01-07T00:20:11;-24034.91;;;0.88;100.00
66627;BME280;53498;50.422;14.912;2024-01-07T00:22:37;-24025.75;;;0.58;100.00
66627;BME280;53498;50.422;14.912;2024-01-07T00:25:02;-24032.88;;;0.81;100.00
66627;BME280;53498;50.422;14.912;2024-01-07T00:27:28;-24028.22;;;0.66;100.00
66627;BME280;53498;50.422;14.912;2024-01-07T00:29:53;-24027.13;;;0.62;100.00
66627;BME280;53498;50.422;14.912;2024-01-07T00:32:19;-24033.06;;;0.82;100.00
66627;BME280;53498;50.422;14.912;2024-01-07T00:34:45;-24035.84;;;0.91;100.00
66627;BME280;53498;50.422;14.912;2024-01-07T00:37:10;-24033.34;;;0.83;100.00
66627;BME280;53498;50.422;14.912;2024-01-07T00:39:36;-24040.19;;;1.05;100.00
66627;BME280;53498;50.422;14.912;2024-01-07T00:42:01;-24025.13;;;0.56;100.00
66627;BME280;53498;50.422;14.912;2024-01-07T00:44:27;-24024.34;;;0.53;100.00
66627;BME280;53498;50.422;14.912;2024-01-07T00:46:53;-24022.94;;;0.49;100.00
66627;BME280;53498;50.422;14.912;2024-01-07T00:49:18;-24022.94;;;0.49;100.00
66627;BME280;53498;50.422;14.912;2024-01-07T00:51:44;-24019.69;;;0.38;100.00
66627;BME280;53498;50.422;14.912;2024-01-07T00:54:09;-24018.28;;;0.33;100.00
66627;BME280;53498;50.422;14.912;2024-01-07T00:56:35;-24020.31;;;0.40;100.00
66627;BME280;53498;50.422;14.912;2024-01-07T00:59:01;-24023.41;;;0.50;100.00
66627;BME280;53498;50.422;14.912;2024-01-07T01:01:27;-24020.94;;;0.42;100.00
66627;BME280;53498;50.422;14.912;2024-01-07T01:03:53;-24018.44;;;0.34;100.00
66627;BME280;53498;50.422;14.912;2024-01-07T01:06:18;-24016.72;;;0.28;100.00
66627;BME280;53498;50.422;14.912;2024-01-07T01:08:44;-24017.50;;;0.31;100.00
66627;BME280;53498;50.422;14.912;2024-01-07T01:11:10;-24017.66;;;0.31;100.00
66627;BME280;53498;50.422;14.912;2024-01-07T01:13:35;-24023.41;;;0.50;100.00
66627;BME280;53498;50.422;14.912;2024-01-07T01:16:01;-24020.47;;;0.40;100.00
66627;BME280;53498;50.422;14.912;2024-01-07T01:18:27;-24018.28;;;0.33;100.00
66627;BME280;53498;50.422;14.912;2024-01-07T01:20:52;-24017.19;;;0.30;100.00
66627;BME280;53498;50.422;14.912;2024-01-07T01:23:18;-24017.81;;;0.32;100.00
66627;BME280;53498;50.422;14.912;2024-01-07T01:25:43;-24011.91;;;0.12;100.00
66627;BME280;53498;50.422;14.912;2024-01-07T01:28:09;-24010.66;;;0.08;100.00
66627;BME280;53498;50.422;14.912;2024-01-07T01:30:35;-24012.53;;;0.14;100.00
66627;BME280;53498;50.422;14.912;2024-01-07T01:33:01;-24012.53;;;0.14;100.00
66627;BME280;53498;50.422;14.912;2024-01-07T01:35:27;-24013.31;;;0.17;100.00
66627;BME280;53498;50.422;14.912;2024-01-07T01:37:53;-24008.94;;;0.03;100.00
66627;BME280;53498;50.422;14.912;2024-01-07T01:40:20;-24011.75;;;0.12;100.00
66627;BME280;53498;50.422;14.912;2024-01-07T01:42:45;-24011.28;;;0.10;100.00
66627;BME280;53498;50.422;14.912;2024-01-07T01:45:14;-24006.31;;;-0.06;100.00
66627;BME280;53498;50.422;14.912;2024-01-07T01:47:40;-24008.19;;;0.00;100.00
66627;BME280;53498;50.422;14.912;2024-01-07T01:50:07;-24008.66;;;0.02;100.00
66627;BME280;53498;50.422;14.912;2024-01-07T01:52:33;-24008.19;;;0.00;100.00
66627;BME280;53498;50.422;14.912;2024-01-07T01:55:00;-24010.97;;;0.09;100.00
66627;BME280;53498;50.422;14.912;2024-01-07T01:57:35;-24015.19;;;0.23;100.00
66627;BME280;53498;50.422;14.912;2024-01-07T02:00:03;-24018.44;;;0.34;100.00
66627;BME280;53498;50.422;14.912;2024-01-07T02:02:33;-24012.06;;;0.13;100.00
66627;BME280;53498;50.422;14.912;2024-01-07T02:05:03;-24013.16;;;0.16;100.00
66627;BME280;53498;50.422;14.912;2024-01-07T02:07:31;-24015.03;;;0.22;100.00
66627;BME280;53498;50.422;14.912;2024-01-07T02:09:57;-24015.03;;;0.22;100.00
66627;BME280;53498;50.422;14.912;2024-01-07T02:12:24;-24011.91;;;0.12;100.00
66627;BME280;53498;50.422;14.912;2024-01-07T02:14:50;-24009.09;;;0.03;100.00
66627;BME280;53498;50.422;14.912;2024-01-07T02:17:16;-24007.56;;;-0.02;100.00
66627;BME280;53498;50.422;14.912;2024-01-07T02:19:42;-24009.44;;;0.04;100.00
66627;BME280;53498;50.422;14.912;2024-01-07T02:22:07;-24006.16;;;-0.07;100.00
66627;BME280;53498;50.422;14.912;2024-01-07T02:24:33;-24005.84;;;-0.08;100.00
66627;BME280;53498;50.422;14.912;2024-01-07T02:26:58;-24004.44;;;-0.12;100.00
66627;BME280;53498;50.422;14.912;2024-01-07T02:29:28;-24003.03;;;-0.17;100.00
66627;BME280;53498;50.422;14.912;2024-01-07T02:31:54;-24010.34;;;0.07;100.00
66627;BME280;53498;50.422;14.912;2024-01-07T02:34:20;-24001.97;;;-0.20;100.00
66627;BME280;53498;50.422;14.912;2024-01-07T02:36:45;-24006.31;;;-0.06;100.00
66627;BME280;53498;50.422;14.912;2024-01-07T02:39:11;-24006.47;;;-0.06;100.00
66627;BME280;53498;50.422;14.912;2024-01-07T02:41:36;-24003.34;;;-0.16;100.00
66627;BME280;53498;50.422;14.912;2024-01-07T02:44:02;-24007.25;;;-0.03;100.00
66627;BME280;53498;50.422;14.912;2024-01-07T02:46:28;-24012.22;;;0.13;100.00
66627;BME280;53498;50.422;14.912;2024-01-07T02:48:53;-24014.41;;;0.20;100.00
66627;BME280;53498;50.422;14.912;2024-01-07T02:51:19;-24007.25;;;-0.03;100.00
66627;BME280;53498;50.422;14.912;2024-01-07T02:53:44;-24011.91;;;0.12;100.00
66627;BME280;53498;50.422;14.912;2024-01-07T02:56:13;-24006.31;;;-0.06;100.00
66627;BME280;53498;50.422;14.912;2024-01-07T02:58:39;-24002.75;;;-0.18;100.00
66627;BME280;53498;50.422;14.912;2024-01-07T03:01:08;-23998.84;;;-0.31;100.00
66627;BME280;53498;50.422;14.912;2024-01-07T03:03:35;-23998.06;;;-0.33;100.00
66627;BME280;53498;50.422;14.912;2024-01-07T03:06:00;-23997.75;;;-0.34;100.00
66627;BME280;53498;50.422;14.912;2024-01-07T03:08:26;-24000.88;;;-0.24;100.00
66627;BME280;53498;50.422;14.912;2024-01-07T03:10:53;-24003.50;;;-0.15;100.00
66627;BME280;53498;50.422;14.912;2024-01-07T03:13:19;-24011.44;;;0.11;100.00
66627;BME280;53498;50.422;14.912;2024-01-07T03:15:44;-24005.69;;;-0.08;100.00
66627;BME280;53498;50.422;14.912;2024-01-07T03:18:10;-24002.75;;;-0.18;100.00
66627;BME280;53498;50.422;14.912;2024-01-07T03:20:35;-24004.75;;;-0.11;100.00
66627;BME280;53498;50.422;14.912;2024-01-07T03:23:01;-23999.78;;;-0.28;100.00
66627;BME280;53498;50.422;14.912;2024-01-07T03:25:27;-23997.75;;;-0.34;100.00
66627;BME280;53498;50.422;14.912;2024-01-07T03:27:52;-23997.28;;;-0.36;100.00
66627;BME280;53498;50.422;14.912;2024-01-07T03:30:18;-24001.34;;;-0.22;100.00
66627;BME280;53498;50.422;14.912;2024-01-07T03:32:44;-24005.69;;;-0.08;100.00
66627;BME280;53498;50.422;14.912;2024-01-07T03:35:09;-24005.53;;;-0.09;100.00
66627;BME280;53498;50.422;14.912;2024-01-07T03:37:35;-24000.09;;;-0.27;100.00
66627;BME280;53498;50.422;14.912;2024-01-07T03:40:01;-24001.97;;;-0.20;100.00
66627;BME280;53498;50.422;14.912;2024-01-07T03:42:27;-23998.53;;;-0.32;100.00
66627;BME280;53498;50.422;14.912;2024-01-07T03:44:53;-23995.44;;;-0.42;100.00
66627;BME280;53498;50.422;14.912;2024-01-07T03:47:18;-23993.25;;;-0.49;100.00
66627;BME280;53498;50.422;14.912;2024-01-07T03:49:47;-23995.28;;;-0.42;100.00
66627;BME280;53498;50.422;14.912;2024-01-07T03:52:13;-23994.81;;;-0.44;100.00
66627;BME280;53498;50.422;14.912;2024-01-07T03:54:38;-23995.91;;;-0.40;100.00
66627;BME280;53498;50.422;14.912;2024-01-07T03:57:04;-23998.06;;;-0.33;100.00
66627;BME280;53498;50.422;14.912;2024-01-07T03:59:30;-24000.09;;;-0.27;100.00
66627;BME280;53498;50.422;14.912;2024-01-07T04:01:56;-23995.28;;;-0.42;100.00
66627;BME280;53498;50.422;14.912;2024-01-07T04:04:23;-23997.13;;;-0.36;100.00
66627;BME280;53498;50.422;14.912;2024-01-07T04:06:48;-23995.13;;;-0.43;100.00
66627;BME280;53498;50.422;14.912;2024-01-07T04:09:14;-23992.00;;;-0.53;100.00
66627;BME280;53498;50.422;14.912;2024-01-07T04:11:40;-23991.84;;;-0.54;100.00
66627;BME280;53498;50.422;14.912;2024-01-07T04:14:06;-23994.19;;;-0.46;100.00
66627;BME280;53498;50.422;14.912;2024-01-07T04:16:32;-23991.53;;;-0.55;100.00
66627;BME280;53498;50.422;14.912;2024-01-07T04:18:57;-23990.13;;;-0.59;100.00
66627;BME280;53498;50.422;14.912;2024-01-07T04:21:23;-23991.38;;;-0.55;100.00
66627;BME280;53498;50.422;14.912;2024-01-07T04:23:49;-23997.28;;;-0.36;100.00
66627;BME280;53498;50.422;14.912;2024-01-07T04:26:14;-23996.34;;;-0.39;100.00
66627;BME280;53498;50.422;14.912;2024-01-07T04:28:43;-24002.13;;;-0.20;100.00
66627;BME280;53498;50.422;14.912;2024-01-07T04:31:09;-23995.13;;;-0.43;100.00
66627;BME280;53498;50.422;14.912;2024-01-07T04:33:35;-23989.81;;;-0.60;100.00
66627;BME280;53498;50.422;14.912;2024-01-07T04:36:01;-23987.03;;;-0.70;100.00
66627;BME280;53498;50.422;14.912;2024-01-07T04:38:27;-23989.81;;;-0.60;100.00
66627;BME280;53498;50.422;14.912;2024-01-07T04:40:53;-23989.19;;;-0.62;100.00
66627;BME280;53498;50.422;14.912;2024-01-07T04:43:19;-23991.38;;;-0.55;100.00
66627;BME280;53498;50.422;14.912;2024-01-07T04:45:45;-23988.44;;;-0.65;100.00
66627;BME280;53498;50.422;14.912;2024-01-07T04:48:10;-23989.81;;;-0.60;100.00
66627;BME280;53498;50.422;14.912;2024-01-07T04:50:36;-23990.75;;;-0.57;100.00
66627;BME280;53498;50.422;14.912;2024-01-07T04:53:02;-23991.69;;;-0.54;100.00
66627;BME280;53498;50.422;14.912;2024-01-07T04:55:29;-23988.88;;;-0.63;100.00
66627;BME280;53498;50.422;14.912;2024-01-07T04:57:55;-23991.22;;;-0.56;100.00
66627;BME280;53498;50.422;14.912;2024-01-07T05:00:21;-23993.88;;;-0.47;100.00
66627;BME280;53498;50.422;14.912;2024-01-07T05:02:46;-23992.16;;;-0.53;100.00
66627;BME280;53498;50.422;14.912;2024-01-07T05:05:12;-23991.38;;;-0.55;100.00
66627;BME280;53498;50.422;14.912;2024-01-07T05:07:37;-23984.53;;;-0.78;100.00
66627;BME280;53498;50.422;14.912;2024-01-07T05:10:07;-23984.53;;;-0.78;100.00
66627;BME280;53498;50.422;14.912;2024-01-07T05:12:32;-23985.78;;;-0.74;100.00
66627;BME280;53498;50.422;14.912;2024-01-07T05:14:58;-23983.59;;;-0.81;100.00
66627;BME280;53498;50.422;14.912;2024-01-07T05:17:24;-23984.38;;;-0.78;100.00
66627;BME280;53498;50.422;14.912;2024-01-07T05:19:49;-23983.75;;;-0.80;100.00
66627;BME280;53498;50.422;14.912;2024-01-07T05:22:18;-23982.34;;;-0.85;100.00
66627;BME280;53498;50.422;14.912;2024-01-07T05:24:44;-23987.03;;;-0.70;100.00
66627;BME280;53498;50.422;14.912;2024-01-07T05:27:09;-23987.94;;;-0.66;100.00
66627;BME280;53498;50.422;14.912;2024-01-07T05:29:35;-23983.44;;;-0.81;100.00
66627;BME280;53498;50.422;14.912;2024-01-07T05:32:00;-23978.47;;;-0.98;100.00
66627;BME280;53498;50.422;14.912;2024-01-07T05:34:27;-23980.78;;;-0.90;100.00
66627;BME280;53498;50.422;14.912;2024-01-07T05:36:53;-23981.09;;;-0.89;100.00
66627;BME280;53498;50.422;14.912;2024-01-07T05:39:19;-23984.38;;;-0.78;100.00
66627;BME280;53498;50.422;14.912;2024-01-07T05:41:45;-23982.97;;;-0.83;100.00
66627;BME280;53498;50.422;14.912;2024-01-07T05:44:11;-23981.09;;;-0.89;100.00
66627;BME280;53498;50.422;14.912;2024-01-07T05:46:40;-23977.53;;;-1.01;100.00
66627;BME280;53498;50.422;14.912;2024-01-07T05:49:06;-23977.53;;;-1.01;100.00
66627;BME280;53498;50.422;14.912;2024-01-07T05:51:31;-23982.03;;;-0.86;100.00
66627;BME280;53498;50.422;14.912;2024-01-07T05:53:57;-23981.88;;;-0.86;100.00
66627;BME280;53498;50.422;14.912;2024-01-07T05:56:23;-23981.41;;;-0.88;100.00
66627;BME280;53498;50.422;14.912;2024-01-07T05:58:49;-23987.19;;;-0.69;100.00
66627;BME280;53498;50.422;14.912;2024-01-07T06:01:19;-23984.84;;;-0.77;100.00
66627;BME280;53498;50.422;14.912;2024-01-07T06:03:46;-23983.28;;;-0.82;100.00
66627;BME280;53498;50.422;14.912;2024-01-07T06:06:13;-23987.34;;;-0.68;100.00
66627;BME280;53498;50.422;14.912;2024-01-07T06:08:41;-23985.63;;;-0.74;100.00
66627;BME280;53498;50.422;14.912;2024-01-07T06:11:06;-23979.56;;;-0.94;100.00
66627;BME280;53498;50.422;14.912;2024-01-07T06:13:32;-23982.03;;;-0.86;100.00
66627;BME280;53498;50.422;14.912;2024-01-07T06:15:58;-23985.31;;;-0.75;100.00
66627;BME280;53498;50.422;14.912;2024-01-07T06:18:23;-23991.53;;;-0.55;100.00
66627;BME280;53498;50.422;14.912;2024-01-07T06:20:49;-23980.03;;;-0.93;99.85
66627;BME280;53498;50.422;14.912;2024-01-07T06:23:14;-23979.25;;;-0.95;100.00
66627;BME280;53498;50.422;14.912;2024-01-07T06:25:40;-23983.28;;;-0.82;100.00
66627;BME280;53498;50.422;14.912;2024-01-07T06:28:06;-23983.44;;;-0.81;100.00
66627;BME280;53498;50.422;14.912;2024-01-07T06:30:32;-23980.47;;;-0.91;100.00
66627;BME280;53498;50.422;14.912;2024-01-07T06:32:59;-23983.59;;;-0.81;100.00
66627;BME280;53498;50.422;14.912;2024-01-07T06:35:24;-23983.28;;;-0.82;100.00
66627;BME280;53498;50.422;14.912;2024-01-07T06:37:51;-23985.31;;;-0.75;100.00
66627;BME280;53498;50.422;14.912;2024-01-07T06:40:16;-23981.56;;;-0.87;100.00
66627;BME280;53498;50.422;14.912;2024-01-07T06:42:42;-23981.56;;;-0.87;100.00
66627;BME280;53498;50.422;14.912;2024-01-07T06:45:09;-23978.47;;;-0.98;99.26
66627;BME280;53498;50.422;14.912;2024-01-07T06:47:35;-23978.63;;;-0.97;99.42
66627;BME280;53498;50.422;14.912;2024-01-07T06:50:00;-23974.72;;;-1.10;98.00
66627;BME280;53498;50.422;14.912;2024-01-07T06:52:26;-23976.75;;;-1.03;98.26
66627;BME280;53498;50.422;14.912;2024-01-07T06:55:22;-23977.38;;;-1.01;98.66
66627;BME280;53498;50.422;14.912;2024-01-07T06:57:48;-23977.84;;;-1.00;97.92
66627;BME280;53498;50.422;14.912;2024-01-07T07:00:14;-23973.94;;;-1.12;96.91
66627;BME280;53498;50.422;14.912;2024-01-07T07:02:40;-23971.16;;;-1.22;97.12
66627;BME280;53498;50.422;14.912;2024-01-07T07:05:05;-23971.47;;;-1.21;98.14
66627;BME280;53498;50.422;14.912;2024-01-07T07:07:31;-23975.34;;;-1.08;98.74
66627;BME280;53498;50.422;14.912;2024-01-07T07:09:56;-23976.13;;;-1.05;98.19
66627;BME280;53498;50.422;14.912;2024-01-07T07:12:22;-23973.63;;;-1.13;98.07
66627;BME280;53498;50.422;14.912;2024-01-07T07:14:48;-23974.88;;;-1.09;98.38
66627;BME280;53498;50.422;14.912;2024-01-07T07:17:14;-23966.94;;;-1.35;96.69
66627;BME280;53498;50.422;14.912;2024-01-07T07:19:40;-23969.44;;;-1.27;98.72
66627;BME280;53498;50.422;14.912;2024-01-07T07:22:06;-23971.47;;;-1.21;98.06
66627;BME280;53498;50.422;14.912;2024-01-07T07:24:31;-23966.47;;;-1.37;96.44
66627;BME280;53498;50.422;14.912;2024-01-07T07:26:57;-23970.84;;;-1.23;97.54
66627;BME280;53498;50.422;14.912;2024-01-07T07:29:22;-23969.13;;;-1.28;96.75
66627;BME280;53498;50.422;14.912;2024-01-07T07:31:48;-23965.38;;;-1.41;95.37
66627;BME280;53498;50.422;14.912;2024-01-07T07:34:13;-23964.28;;;-1.44;96.74
66627;BME280;53498;50.422;14.912;2024-01-07T07:36:40;-23963.66;;;-1.46;97.42
66627;BME280;53498;50.422;14.912;2024-01-07T07:39:08;-23960.25;;;-1.57;98.25
66627;BME280;53498;50.422;14.912;2024-01-07T07:41:34;-23960.72;;;-1.56;97.64
66627;BME280;53498;50.422;14.912;2024-01-07T07:44:00;-23960.88;;;-1.55;99.09
66627;BME280;53498;50.422;14.912;2024-01-07T07:46:25;-23963.81;;;-1.46;98.08
66627;BME280;53498;50.422;14.912;2024-01-07T07:48:51;-23961.97;;;-1.52;97.94
66627;BME280;53498;50.422;14.912;2024-01-07T07:51:17;-23966.94;;;-1.35;98.67
66627;BME280;53498;50.422;14.912;2024-01-07T07:53:42;-23966.47;;;-1.37;98.76
66627;BME280;53498;50.422;14.912;2024-01-07T07:56:08;-23971.47;;;-1.21;100.00
66627;BME280;53498;50.422;14.912;2024-01-07T07:58:33;-23963.66;;;-1.46;96.49
66627;BME280;53498;50.422;14.912;2024-01-07T08:00:59;-23967.25;;;-1.34;97.47
66627;BME280;53498;50.422;14.912;2024-01-07T08:03:25;-23961.66;;;-1.53;97.21
66627;BME280;53498;50.422;14.912;2024-01-07T08:05:52;-23958.84;;;-1.62;98.39
66627;BME280;53498;50.422;14.912;2024-01-07T08:08:17;-23966.16;;;-1.38;99.52
66627;BME280;53498;50.422;14.912;2024-01-07T08:10:43;-23968.97;;;-1.29;97.96
66627;BME280;53498;50.422;14.912;2024-01-07T08:13:09;-23965.38;;;-1.41;96.02
66627;BME280;53498;50.422;14.912;2024-01-07T08:15:35;-23964.91;;;-1.42;97.26
66627;BME280;53498;50.422;14.912;2024-01-07T08:18:01;-23965.84;;;-1.39;97.44
66627;BME280;53498;50.422;14.912;2024-01-07T08:20:27;-23960.25;;;-1.57;97.34
66627;BME280;53498;50.422;14.912;2024-01-07T08:22:54;-23959.78;;;-1.59;97.34
66627;BME280;53498;50.422;14.912;2024-01-07T08:25:20;-23968.50;;;-1.30;99.67
66627;BME280;53498;50.422;14.912;2024-01-07T08:27:45;-23970.69;;;-1.23;97.68
66627;BME280;53498;50.422;14.912;2024-01-07T08:30:11;-23966.63;;;-1.36;96.75
66627;BME280;53498;50.422;14.912;2024-01-07T08:32:39;-23967.72;;;-1.33;97.54
66627;BME280;53498;50.422;14.912;2024-01-07T08:35:05;-23963.38;;;-1.47;97.33
66627;BME280;53498;50.422;14.912;2024-01-07T08:37:31;-23969.28;;;-1.28;98.64
66627;BME280;53498;50.422;14.912;2024-01-07T08:39:57;-23968.19;;;-1.31;97.69
66627;BME280;53498;50.422;14.912;2024-01-07T08:42:22;-23970.84;;;-1.23;98.56
66627;BME280;53498;50.422;14.912;2024-01-07T08:44:48;-23963.03;;;-1.48;97.90
66627;BME280;53498;50.422;14.912;2024-01-07T08:47:14;-23971.31;;;-1.21;100.00
66627;BME280;53498;50.422;14.912;2024-01-07T08:49:40;-23966.63;;;-1.36;98.24
66627;BME280;53498;50.422;14.912;2024-01-07T08:52:06;-23968.50;;;-1.30;98.91
66627;BME280;53498;50.422;14.912;2024-01-07T08:54:32;-23963.66;;;-1.46;97.88
66627;BME280;53498;50.422;14.912;2024-01-07T08:56:58;-23962.59;;;-1.50;98.42
66627;BME280;53498;50.422;14.912;2024-01-07T08:59:24;-23970.84;;;-1.23;100.00
66627;BME280;53498;50.422;14.912;2024-01-07T09:01:50;-23968.34;;;-1.31;98.30
66627;BME280;53498;50.422;14.912;2024-01-07T09:04:15;-23972.38;;;-1.18;98.11
66627;BME280;53498;50.422;14.912;2024-01-07T09:06:44;-23971.31;;;-1.21;99.42
66627;BME280;53498;50.422;14.912;2024-01-07T09:09:09;-23974.09;;;-1.12;97.29
66627;BME280;53498;50.422;14.912;2024-01-07T09:11:35;-23972.38;;;-1.18;97.47
66627;BME280;53498;50.422;14.912;2024-01-07T09:14:02;-23975.81;;;-1.06;97.66
66627;BME280;53498;50.422;14.912;2024-01-07T09:16:29;-23976.13;;;-1.05;95.74
66627;BME280;53498;50.422;14.912;2024-01-07T09:18:55;-23971.16;;;-1.22;95.74
66627;BME280;53498;50.422;14.912;2024-01-07T09:21:21;-23977.22;;;-1.02;98.29
66627;BME280;53498;50.422;14.912;2024-01-07T09:23:48;-23981.72;;;-0.87;96.86
66627;BME280;53498;50.422;14.912;2024-01-07T09:26:14;-23984.53;;;-0.78;97.69
66627;BME280;53498;50.422;14.912;2024-01-07T09:28:40;-23980.16;;;-0.92;94.49
66627;BME280;53498;50.422;14.912;2024-01-07T09:31:06;-23986.09;;;-0.73;95.63
66627;BME280;53498;50.422;14.912;2024-01-07T09:33:31;-23979.72;;;-0.94;93.74
66627;BME280;53498;50.422;14.912;2024-01-07T09:35:57;-23981.09;;;-0.89;92.89
66627;BME280;53498;50.422;14.912;2024-01-07T09:38:22;-23976.28;;;-1.05;92.48
66627;BME280;53498;50.422;14.912;2024-01-07T09:40:50;-23980.66;;;-0.90;93.73
66627;BME280;53498;50.422;14.912;2024-01-07T09:43:16;-23976.44;;;-1.04;92.18
66627;BME280;53498;50.422;14.912;2024-01-07T09:45:46;-23979.88;;;-0.93;90.93
66627;BME280;53498;50.422;14.912;2024-01-07T09:48:12;-23971.63;;;-1.20;90.50
66627;BME280;53498;50.422;14.912;2024-01-07T09:50:38;-23970.84;;;-1.23;91.17
66627;BME280;53498;50.422;14.912;2024-01-07T09:53:04;-23971.94;;;-1.19;92.08
66627;BME280;53498;50.422;14.912;2024-01-07T09:55:33;-23974.41;;;-1.11;89.75
66627;BME280;53498;50.422;14.912;2024-01-07T09:58:03;-23970.84;;;-1.23;88.83
66627;BME280;53498;50.422;14.912;2024-01-07T10:00:29;-23964.91;;;-1.42;87.84
66627;BME280;53498;50.422;14.912;2024-01-07T10:02:55;-23964.59;;;-1.43;87.92
66627;BME280;53498;50.422;14.912;2024-01-07T10:05:20;-23965.53;;;-1.40;89.08
66627;BME280;53498;50.422;14.912;2024-01-07T10:07:47;-23973.63;;;-1.13;89.42
66627;BME280;53498;50.422;14.912;2024-01-07T10:10:16;-23975.50;;;-1.07;88.45
66627;BME280;53498;50.422;14.912;2024-01-07T10:12:45;-23971.31;;;-1.21;88.04
66627;BME280;53498;50.422;14.912;2024-01-07T10:15:12;-23971.47;;;-1.21;86.58
66627;BME280;53498;50.422;14.912;2024-01-07T10:17:39;-23969.59;;;-1.27;86.78
66627;BME280;53498;50.422;14.912;2024-01-07T10:20:05;-23966.47;;;-1.37;84.88
66627;BME280;53498;50.422;14.912;2024-01-07T10:22:37;-23968.97;;;-1.29;87.12
66627;BME280;53498;50.422;14.912;2024-01-07T10:25:03;-23964.91;;;-1.42;86.87
66627;BME280;53498;50.422;14.912;2024-01-07T10:27:29;-23965.22;;;-1.41;86.79
66627;BME280;53498;50.422;14.912;2024-01-07T10:29:58;-23969.13;;;-1.28;87.57
66627;BME280;53498;50.422;14.912;2024-01-07T10:32:24;-23965.22;;;-1.41;85.54
66627;BME280;53498;50.422;14.912;2024-01-07T10:34:50;-23967.88;;;-1.32;86.53
66627;BME280;53498;50.422;14.912;2024-01-07T10:37:19;-23962.44;;;-1.50;85.12
66627;BME280;53498;50.422;14.912;2024-01-07T10:39:45;-23961.66;;;-1.53;85.89
66627;BME280;53498;50.422;14.912;2024-01-07T10:42:12;-23962.59;;;-1.50;86.34
66627;BME280;53498;50.422;14.912;2024-01-07T10:44:38;-23968.19;;;-1.31;84.38
66627;BME280;53498;50.422;14.912;2024-01-07T10:47:06;-23965.06;;;-1.42;84.18
66627;BME280;53498;50.422;14.912;2024-01-07T10:49:34;-23963.38;;;-1.47;84.63
66627;BME280;53498;50.422;14.912;2024-01-07T10:52:05;-23962.75;;;-1.49;84.27
66627;BME280;53498;50.422;14.912;2024-01-07T10:54:32;-23965.69;;;-1.40;84.49
66627;BME280;53498;50.422;14.912;2024-01-07T10:57:32;-23965.53;;;-1.40;82.65
66627;BME280;53498;50.422;14.912;2024-01-07T11:00:00;-23964.91;;;-1.42;85.60
66627;BME280;53498;50.422;14.912;2024-01-07T11:02:26;-23965.53;;;-1.40;84.14
66627;BME280;53498;50.422;14.912;2024-01-07T11:05:19;-23963.66;;;-1.46;83.86
66627;BME280;53498;50.422;14.912;2024-01-07T11:08:05;-23958.53;;;-1.63;83.31
66627;BME280;53498;50.422;14.912;2024-01-07T11:10:38;-23963.03;;;-1.48;83.41
66627;BME280;53498;50.422;14.912;2024-01-07T11:13:05;-23961.97;;;-1.52;84.14
66627;BME280;53498;50.422;14.912;2024-01-07T11:16:02;-23962.75;;;-1.49;83.85
66627;BME280;53498;50.422;14.912;2024-01-07T11:18:28;-23963.81;;;-1.46;83.59
66627;BME280;53498;50.422;14.912;2024-01-07T11:21:00;-23969.59;;;-1.27;85.45
66627;BME280;53498;50.422;14.912;2024-01-07T11:23:34;-23963.97;;;-1.45;82.65
66627;BME280;53498;50.422;14.912;2024-01-07T11:26:05;-23964.91;;;-1.42;82.18
66627;BME280;53498;50.422;14.912;2024-01-07T11:28:51;-23965.22;;;-1.41;82.77
66627;BME280;53498;50.422;14.912;2024-01-07T11:31:19;-23963.66;;;-1.46;82.40
66627;BME280;53498;50.422;14.912;2024-01-07T11:33:50;-23963.38;;;-1.47;80.70
66627;BME280;53498;50.422;14.912;2024-01-07T11:36:16;-23962.59;;;-1.50;81.63
66627;BME280;53498;50.422;14.912;2024-01-07T11:38:50;-23960.56;;;-1.56;81.08
66627;BME280;53498;50.422;14.912;2024-01-07T11:41:16;-23964.28;;;-1.44;81.91
66627;BME280;53498;50.422;14.912;2024-01-07T11:43:52;-23966.31;;;-1.37;81.76
66627;BME280;53498;50.422;14.912;2024-01-07T11:46:18;-23965.84;;;-1.39;81.15
66627;BME280;53498;50.422;14.912;2024-01-07T11:48:45;-23968.34;;;-1.31;80.94
66627;BME280;53498;50.422;14.912;2024-01-07T11:51:20;-23970.22;;;-1.25;82.12
66627;BME280;53498;50.422;14.912;2024-01-07T11:53:46;-23969.91;;;-1.26;81.26
66627;BME280;53498;50.422;14.912;2024-01-07T11:56:13;-23969.28;;;-1.28;81.30
66627;BME280;53498;50.422;14.912;2024-01-07T11:58:40;-23964.44;;;-1.44;83.46
66627;BME280;53498;50.422;14.912;2024-01-07T12:01:06;-23957.28;;;-1.67;83.09
66627;BME280;53498;50.422;14.912;2024-01-07T12:03:31;-23957.28;;;-1.67;82.36
66627;BME280;53498;50.422;14.912;2024-01-07T12:05:57;-23964.44;;;-1.44;83.21
66627;BME280;53498;50.422;14.912;2024-01-07T12:08:23;-23965.06;;;-1.42;83.50
66627;BME280;53498;50.422;14.912;2024-01-07T12:10:49;-23957.44;;;-1.67;82.53
66627;BME280;53498;50.422;14.912;2024-01-07T12:13:15;-23959.94;;;-1.58;84.62
66627;BME280;53498;50.422;14.912;2024-01-07T12:15:41;-23953.84;;;-1.78;83.97
66627;BME280;53498;50.422;14.912;2024-01-07T12:18:07;-23954.16;;;-1.77;82.65
66627;BME280;53498;50.422;14.912;2024-01-07T12:20:38;-23953.38;;;-1.80;81.33
66627;BME280;53498;50.422;14.912;2024-01-07T12:23:07;-23955.09;;;-1.74;82.27
66627;BME280;53498;50.422;14.912;2024-01-07T12:25:33;-23955.56;;;-1.73;81.43
66627;BME280;53498;50.422;14.912;2024-01-07T12:28:01;-23954.63;;;-1.76;80.78
66627;BME280;53498;50.422;14.912;2024-01-07T12:30:26;-23954.47;;;-1.76;79.91
66627;BME280;53498;50.422;14.912;2024-01-07T12:32:53;-23953.69;;;-1.79;80.60